Time;durP1;ratioP1;P1;durP2;ratioP2;P2;SDS_P1;SDS_P2;PMS_P1;PMS_P2;Temp;Humidity;BMP_temperature;BMP_pressure;BME280_temperature;BME280_humidity;BME280_pressure;Samples;Min_cycle;Max_cycle;Signal;HPM_P1;HPM_P2
2022/09/01 00:01:28;;;;;;;;;9.00;8.50;;;;;21.70;55.57;100778.22;5076194;27;45481;-74
2022/09/01 00:03:58;;;;;;;;;11.25;10.25;;;;;21.66;55.53;100782.94;5075814;28;45744;-74
2022/09/01 00:06:24;;;;;;;;;13.25;10.75;;;;;21.56;55.83;100765.63;5076556;27;47059;-75
2022/09/01 00:08:55;;;;;;;;;8.00;8.00;;;;;21.63;56.05;100783.13;5076070;27;45981;-75
2022/09/01 00:11:23;;;;;;;;;9.00;9.00;;;;;21.58;55.92;100769.13;5074864;27;45463;-75
2022/09/01 00:13:50;;;;;;;;;10.25;10.25;;;;;21.55;55.86;100778.22;5075348;28;45566;-73
2022/09/01 00:16:17;;;;;;;;;9.00;9.00;;;;;21.55;55.92;100774.69;5076474;27;45958;-75
2022/09/01 00:18:45;;;;;;;;;13.75;12.00;;;;;21.48;56.28;100777.72;5075538;27;45479;-75
2022/09/01 00:21:11;;;;;;;;;12.00;9.25;;;;;21.46;56.04;100774.25;5075576;27;45392;-73
2022/09/01 00:23:37;;;;;;;;;7.00;7.00;;;;;21.43;56.53;100771.75;5076298;27;45351;-76
2022/09/01 00:26:03;;;;;;;;;9.75;5.50;;;;;21.40;56.51;100771.09;5074823;27;45429;-74
2022/09/01 00:28:32;;;;;;;;;14.50;10.50;;;;;21.39;56.37;100763.97;5075284;28;45399;-74
2022/09/01 00:30:58;;;;;;;;;8.75;8.50;;;;;21.37;56.72;100772.13;5075031;28;45596;-75
2022/09/01 00:33:23;;;;;;;;;8.00;6.25;;;;;21.32;56.78;100763.50;5074532;28;45600;-75
2022/09/01 00:35:48;;;;;;;;;12.00;10.25;;;;;21.31;56.46;100759.09;5075830;27;46051;-74
2022/09/01 00:38:14;;;;;;;;;11.00;11.00;;;;;21.31;56.73;100761.78;5075082;27;45447;-75
2022/09/01 00:40:39;;;;;;;;;12.50;10.50;;;;;21.23;56.97;100756.03;5074854;28;45720;-76
2022/09/01 00:43:17;;;;;;;;;11.25;10.00;;;;;21.24;57.08;100757.72;5074893;27;45672;-75
2022/09/01 00:45:43;;;;;;;;;8.25;8.00;;;;;21.24;57.05;100763.09;5075883;28;46453;-75
2022/09/01 00:48:08;;;;;;;;;10.50;10.50;;;;;21.22;57.13;100757.81;5076291;28;45519;-75
2022/09/01 00:50:36;;;;;;;;;6.50;6.50;;;;;21.19;57.25;100762.53;5073360;28;45455;-75
2022/09/01 00:53:04;;;;;;;;;6.75;6.75;;;;;21.25;57.02;100762.16;5075164;27;45385;-74
2022/09/01 00:55:32;;;;;;;;;10.00;8.75;;;;;21.28;56.99;100762.81;5074808;28;46264;-75
2022/09/01 00:57:59;;;;;;;;;11.00;10.00;;;;;21.23;57.15;100758.72;5074995;28;45371;-74
2022/09/01 01:00:29;;;;;;;;;12.50;12.50;;;;;21.23;57.33;100756.03;5074455;28;45500;-75
2022/09/01 01:02:55;;;;;;;;;13.75;12.00;;;;;21.20;57.33;100759.75;5073734;28;45578;-74
2022/09/01 01:05:38;;;;;;;;;9.00;9.00;;;;;21.19;57.49;100757.16;5074686;27;45460;-74
2022/09/01 01:08:06;;;;;;;;;10.50;8.50;;;;;21.14;57.58;100748.53;5075314;27;45484;-77
2022/09/01 01:10:36;;;;;;;;;6.00;5.00;;;;;21.10;57.42;100754.09;5073386;28;45500;-76
2022/09/01 01:13:09;;;;;;;;;10.00;9.00;;;;;21.13;57.32;100750.34;5074288;27;45505;-76
2022/09/01 01:15:35;;;;;;;;;5.50;3.75;;;;;21.11;57.60;100750.44;5075435;28;45296;-75
2022/09/01 01:18:01;;;;;;;;;9.25;8.50;;;;;21.05;57.68;100753.50;5074575;27;45462;-75
2022/09/01 01:23:44;;;;;;;;;11.75;9.50;;;;;21.02;57.87;100761.75;5074512;28;45318;-75
2022/09/01 01:26:10;;;;;;;;;10.50;10.50;;;;;20.97;58.14;100753.13;5074141;28;45779;-75
2022/09/01 01:28:40;;;;;;;;;13.50;11.00;;;;;20.91;58.30;100748.13;5075497;28;45469;-75
2022/09/01 01:31:11;;;;;;;;;10.00;10.00;;;;;20.90;58.38;100746.38;5054772;28;45835;-75
2022/09/01 01:33:43;;;;;;;;;9.00;9.00;;;;;20.92;58.44;100752.50;5064182;28;45446;-75
2022/09/01 01:36:12;;;;;;;;;10.50;10.50;;;;;20.83;58.68;100748.56;5068112;28;48052;-75
2022/09/01 01:38:42;;;;;;;;;6.25;6.25;;;;;20.83;58.85;100756.63;5074062;27;45384;-75
2022/09/01 01:41:12;;;;;;;;;12.00;10.00;;;;;20.79;59.12;100754.22;5073294;27;45413;-75
2022/09/01 01:43:39;;;;;;;;;9.25;9.25;;;;;20.81;58.95;100757.69;5074126;27;45552;-75
2022/09/01 01:46:10;;;;;;;;;10.00;10.00;;;;;20.79;59.02;100760.44;5072649;27;45450;-75
2022/09/01 01:48:39;;;;;;;;;10.00;9.00;;;;;20.79;58.82;100757.78;5074436;27;45467;-75
2022/09/01 01:51:05;;;;;;;;;11.25;10.00;;;;;20.75;59.10;100759.75;5074712;28;45338;-75
2022/09/01 01:53:32;;;;;;;;;12.00;10.25;;;;;20.75;59.23;100759.75;5073632;28;45505;-75
2022/09/01 01:55:59;;;;;;;;;10.50;10.50;;;;;20.73;59.39;100756.31;5073459;28;45501;-75
2022/09/01 01:58:26;;;;;;;;;14.25;10.00;;;;;20.68;59.40;100758.41;5074188;28;45377;-75
2022/09/01 02:00:54;;;;;;;;;9.25;9.00;;;;;20.63;59.86;100759.59;5073896;28;45345;-75
2022/09/01 02:03:24;;;;;;;;;11.25;9.75;;;;;20.62;60.01;100763.22;5074306;28;45539;-76
2022/09/01 02:05:52;;;;;;;;;14.00;10.75;;;;;20.55;60.54;100762.75;5074569;28;45465;-75
2022/09/01 02:08:20;;;;;;;;;12.50;10.00;;;;;20.51;60.44;100759.38;5074744;27;45483;-75
2022/09/01 02:10:51;;;;;;;;;9.25;9.00;;;;;20.49;60.79;100763.97;5073619;27;45595;-75
2022/09/01 02:13:19;;;;;;;;;7.25;5.50;;;;;20.49;60.49;100763.97;5052833;28;45569;-75
2022/09/01 02:15:55;;;;;;;;;9.75;9.75;;;;;20.48;60.68;100762.25;5061372;28;46284;-74
2022/09/01 02:18:27;;;;;;;;;9.75;9.75;;;;;20.46;60.69;100763.28;5073079;28;45439;-75
2022/09/01 02:20:54;;;;;;;;;12.00;9.50;;;;;20.45;60.88;100766.91;5074001;28;45535;-75
2022/09/01 02:23:23;;;;;;;;;9.75;9.25;;;;;20.41;61.04;100767.09;5073494;28;45464;-76
2022/09/01 02:25:52;;;;;;;;;9.50;9.50;;;;;20.42;61.17;100773.31;5073894;28;45331;-75
2022/09/01 02:28:19;;;;;;;;;8.75;6.50;;;;;20.40;61.23;100765.34;5073402;28;45472;-74
2022/09/01 02:30:50;;;;;;;;;8.50;8.50;;;;;20.41;61.15;100767.09;5072995;28;45441;-76
2022/09/01 02:33:17;;;;;;;;;10.25;8.75;;;;;20.41;61.07;100776.97;5074115;27;45500;-76
2022/09/01 02:35:48;;;;;;;;;10.00;9.00;;;;;20.38;61.26;100772.63;5073514;28;47134;-75
2022/09/01 02:38:16;;;;;;;;;11.00;11.00;;;;;20.33;61.59;100769.38;5073490;28;45501;-75
2022/09/01 02:40:45;;;;;;;;;7.50;7.50;;;;;20.33;61.32;100772.06;5073158;28;45364;-74
2022/09/01 02:43:16;;;;;;;;;9.75;8.50;;;;;20.34;61.28;100772.91;5072106;28;45870;-75
2022/09/01 02:45:42;;;;;;;;;12.50;6.00;;;;;20.32;61.48;100774.81;5072766;28;46184;-76
2022/09/01 02:48:09;;;;;;;;;10.00;9.75;;;;;20.27;61.75;100764.34;5071850;28;45425;-75
2022/09/01 02:50:38;;;;;;;;;8.25;8.00;;;;;20.26;61.79;100767.97;5072640;28;45489;-75
2022/09/01 02:53:08;;;;;;;;;10.25;8.50;;;;;20.24;61.74;100764.53;5073458;28;45423;-75
2022/09/01 02:55:37;;;;;;;;;8.75;8.75;;;;;20.20;61.84;100762.97;5073029;27;45560;-76
2022/09/01 02:58:03;;;;;;;;;10.25;9.25;;;;;20.16;62.03;100756.94;5067199;27;45450;-75
2022/09/01 03:00:30;;;;;;;;;5.25;4.25;;;;;20.18;61.93;100760.38;5052749;28;45409;-74
2022/09/01 03:02:57;;;;;;;;;9.75;9.50;;;;;20.17;62.09;100758.63;5069408;28;45356;-75
2022/09/01 03:05:28;;;;;;;;;6.00;6.00;;;;;20.19;61.97;100763.91;5072437;27;46253;-75
2022/09/01 03:07:56;;;;;;;;;11.50;9.00;;;;;20.16;62.02;100764.09;5073690;28;45435;-74
2022/09/01 03:10:31;;;;;;;;;10.00;9.00;;;;;20.14;62.42;100752.59;5074006;28;45508;-77
2022/09/01 03:13:00;;;;;;;;;12.00;9.00;;;;;20.10;62.32;100756.41;5074159;28;45510;-75
2022/09/01 03:15:26;;;;;;;;;13.00;11.00;;;;;20.04;62.52;100761.16;5072030;28;48262;-74
2022/09/01 03:17:52;;;;;;;;;6.75;6.75;;;;;20.01;62.59;100753.28;5074027;27;45547;-74
2022/09/01 03:20:18;;;;;;;;;5.75;5.00;;;;;19.88;62.95;100736.16;5071997;28;45439;-75
2022/09/01 03:22:46;;;;;;;;;9.75;9.00;;;;;19.96;62.57;100744.63;5073407;27;45429;-75
2022/09/01 03:25:12;;;;;;;;;7.75;6.00;;;;;19.96;62.72;100755.34;5072733;28;46165;-76
2022/09/01 03:27:37;;;;;;;;;5.50;5.50;;;;;19.92;62.90;100751.13;5073982;27;45389;-75
2022/09/01 03:30:03;;;;;;;;;11.50;9.00;;;;;19.90;63.01;100749.50;5076544;28;45482;-74
2022/09/01 03:32:29;;;;;;;;;9.50;9.50;;;;;19.85;62.98;100734.50;5077540;27;45419;-74
2022/09/01 03:34:55;;;;;;;;;11.00;9.75;;;;;19.84;62.96;100739.97;5075262;27;45520;-76
2022/09/01 03:37:22;;;;;;;;;11.00;9.25;;;;;19.88;63.25;100744.22;5076426;28;45314;-74
2022/09/01 03:39:47;;;;;;;;;9.00;9.00;;;;;19.84;63.17;100739.97;5076633;27;45492;-75
2022/09/01 03:42:18;;;;;;;;;7.75;7.25;;;;;19.83;63.36;100741.78;5076558;27;45481;-75
2022/09/01 03:44:44;;;;;;;;;10.00;10.00;;;;;19.82;63.66;100749.91;5075606;27;45510;-76
2022/09/01 03:47:10;;;;;;;;;5.50;5.50;;;;;19.77;63.72;100744.81;5076529;27;45359;-75
2022/09/01 03:49:38;;;;;;;;;9.75;9.75;;;;;19.77;63.57;100741.22;5076554;28;45456;-74
2022/09/01 03:52:07;;;;;;;;;11.00;7.25;;;;;19.79;63.77;100750.09;5076154;28;45456;-75
2022/09/01 03:54:33;;;;;;;;;12.25;9.25;;;;;19.75;63.69;100740.44;5075068;27;46417;-74
2022/09/01 03:56:59;;;;;;;;;8.75;7.50;;;;;19.79;63.46;100742.03;5075886;27;45350;-75
2022/09/01 03:59:25;;;;;;;;;9.00;8.50;;;;;19.74;63.32;100731.53;5075620;27;45544;-76
2022/09/01 04:01:51;;;;;;;;;11.25;10.00;;;;;19.78;63.45;100734.94;5076730;28;45586;-77
2022/09/01 04:04:17;;;;;;;;;8.50;8.00;;;;;19.82;63.44;100741.88;5076872;28;46167;-75
2022/09/01 04:06:44;;;;;;;;;6.75;5.75;;;;;19.88;62.92;100742.38;5076876;28;45465;-75
2022/09/01 04:09:10;;;;;;;;;9.00;9.00;;;;;19.89;62.78;100735.22;5075696;28;45394;-74
2022/09/01 04:11:38;;;;;;;;;9.50;8.50;;;;;19.91;62.90;100727.94;5074629;27;45643;-75
2022/09/01 04:14:04;;;;;;;;;8.75;8.00;;;;;19.93;62.76;100726.03;5076490;27;46013;-75
2022/09/01 04:19:25;;;;;;;;;5.25;3.75;;;;;19.95;62.49;100725.94;5076468;28;45331;-77
2022/09/01 04:21:59;;;;;;;;;11.25;9.00;;;;;19.96;62.56;100728.53;5075585;27;45517;-75
2022/09/01 04:24:26;;;;;;;;;9.00;5.50;;;;;19.95;62.29;100726.81;5075745;27;46167;-74
2022/09/01 04:26:53;;;;;;;;;8.00;6.00;;;;;19.96;62.41;100733.91;5075728;28;45511;-75
2022/09/01 04:29:26;;;;;;;;;7.00;6.00;;;;;19.91;62.53;100730.63;5076434;28;45440;-74
2022/09/01 04:31:53;;;;;;;;;5.75;5.75;;;;;19.93;62.48;100722.50;5076033;28;45426;-75
2022/09/01 04:34:23;;;;;;;;;12.25;12.25;;;;;19.87;62.58;100715.66;5091043;27;47222;-75
2022/09/01 04:36:53;;;;;;;;;10.25;10.00;;;;;19.87;62.62;100731.75;5076028;27;45481;-76
2022/09/01 04:39:19;;;;;;;;;13.00;10.50;;;;;19.83;62.91;100730.19;5075167;27;45388;-75
2022/09/01 04:41:45;;;;;;;;;10.75;9.50;;;;;19.81;63.00;100718.69;5074865;28;45428;-75
2022/09/01 04:44:15;;;;;;;;;11.00;9.75;;;;;19.82;62.59;100720.41;5075550;27;46144;-75
2022/09/01 04:46:44;;;;;;;;;9.50;9.50;;;;;19.75;63.05;100719.00;5075966;27;45417;-75
2022/09/01 04:49:11;;;;;;;;;11.00;10.50;;;;;19.63;63.13;100708.03;5075607;27;45384;-74
2022/09/01 04:51:41;;;;;;;;;10.00;7.00;;;;;19.68;63.16;100730.06;5075233;27;45460;-75
2022/09/01 04:54:10;;;;;;;;;8.75;5.25;;;;;19.60;63.46;100721.59;5075237;27;46029;-76
2022/09/01 04:56:36;;;;;;;;;6.00;6.00;;;;;19.67;63.26;100730.16;5075359;27;45398;-75
2022/09/01 04:59:03;;;;;;;;;5.00;5.00;;;;;19.67;63.15;100733.69;5076044;27;45553;-76
2022/09/01 05:01:28;;;;;;;;;11.50;8.00;;;;;19.67;63.36;100722.97;5062068;28;45558;-76
2022/09/01 05:04:00;;;;;;;;;6.00;6.00;;;;;19.65;63.50;100734.75;5068398;28;46140;-76
2022/09/01 05:06:27;;;;;;;;;10.50;9.00;;;;;19.67;63.28;100735.50;5074334;27;45532;-76
2022/09/01 05:08:56;;;;;;;;;5.50;4.50;;;;;19.67;63.20;100733.69;5074788;27;45469;-74
2022/09/01 05:11:22;;;;;;;;;8.50;6.00;;;;;19.67;62.89;100736.38;5074149;28;45645;-76
2022/09/01 05:13:49;;;;;;;;;8.00;6.50;;;;;19.65;63.11;100740.97;5074976;28;45940;-76
2022/09/01 05:16:20;;;;;;;;;9.00;8.00;;;;;19.62;63.11;100733.09;5075525;27;45393;-75
2022/09/01 05:18:47;;;;;;;;;6.25;6.25;;;;;19.65;62.85;100740.09;5075019;27;45401;-75
2022/09/01 05:21:20;;;;;;;;;9.00;6.25;;;;;19.66;63.11;100733.78;5074455;28;45505;-76
2022/09/01 05:23:47;;;;;;;;;8.50;8.00;;;;;19.64;62.91;100738.38;5074995;27;45471;-74
2022/09/01 05:26:19;;;;;;;;;7.75;5.75;;;;;19.56;63.20;100740.63;5074745;27;45477;-74
2022/09/01 05:28:46;;;;;;;;;13.00;9.25;;;;;19.52;63.55;100737.22;5075638;28;45361;-74
2022/09/01 05:31:11;;;;;;;;;12.25;9.00;;;;;19.52;63.32;100737.22;5073421;27;45422;-75
2022/09/01 05:33:44;;;;;;;;;7.50;5.50;;;;;19.53;63.40;100736.28;5074296;27;46143;-75
2022/09/01 05:36:11;;;;;;;;;8.00;5.75;;;;;19.56;63.12;100722.72;5074864;27;45391;-75
2022/09/01 05:38:40;;;;;;;;;9.50;8.00;;;;;19.58;62.92;100731.53;5074750;28;45504;-76
2022/09/01 05:41:08;;;;;;;;;8.00;6.00;;;;;19.68;62.94;100734.56;5074530;28;45519;-75
2022/09/01 05:43:34;;;;;;;;;8.00;8.00;;;;;19.82;62.48;100732.00;5074115;27;46167;-75
2022/09/01 05:46:02;;;;;;;;;5.25;5.25;;;;;20.06;61.71;100732.44;5074403;27;45528;-74
2022/09/01 05:48:30;;;;;;;;;10.75;9.25;;;;;20.38;60.76;100737.75;5074840;27;45458;-75
2022/09/01 05:50:58;;;;;;;;;10.25;10.00;;;;;20.43;60.27;100737.47;5073148;27;45461;-75
2022/09/01 05:53:24;;;;;;;;;7.00;6.75;;;;;20.68;59.88;100733.34;5074962;28;45502;-76
2022/09/01 05:55:56;;;;;;;;;9.00;9.00;;;;;20.96;58.97;100732.56;5074646;28;45477;-76
2022/09/01 05:58:26;;;;;;;;;5.25;5.25;;;;;21.35;57.88;100725.69;5090815;27;45461;-75
2022/09/01 06:00:54;;;;;;;;;6.75;6.00;;;;;21.70;56.61;100730.69;5073366;28;45467;-75
2022/09/01 06:03:21;;;;;;;;;5.00;5.00;;;;;21.81;55.98;100728.16;5075435;27;45444;-76
2022/09/01 06:05:51;;;;;;;;;9.50;8.50;;;;;22.00;55.58;100733.22;5074740;27;45442;-75
2022/09/01 06:08:23;;;;;;;;;8.50;6.00;;;;;22.38;54.68;100742.44;5074723;27;45464;-75
2022/09/01 06:10:50;;;;;;;;;6.00;5.00;;;;;22.61;54.12;100734.59;5073210;28;45619;-75
2022/09/01 06:13:20;;;;;;;;;7.75;7.75;;;;;22.75;53.40;100734.53;5079018;27;46253;-76
2022/09/01 06:15:52;;;;;;;;;10.50;8.50;;;;;22.76;52.73;100730.00;5073530;28;45381;-75
2022/09/01 06:18:17;;;;;;;;;9.00;9.00;;;;;22.65;52.91;100733.44;5075043;27;45519;-73
2022/09/01 06:20:48;;;;;;;;;8.75;6.25;;;;;22.57;53.74;100741.19;5073727;28;45618;-76
2022/09/01 06:23:16;;;;;;;;;6.25;6.25;;;;;22.47;53.75;100735.53;5074382;27;45619;-75
2022/09/01 06:25:44;;;;;;;;;7.50;7.00;;;;;22.40;53.69;100735.09;5073507;28;45340;-76
2022/09/01 06:28:11;;;;;;;;;11.25;9.75;;;;;22.41;53.59;100747.63;5075223;27;45527;-75
2022/09/01 06:30:38;;;;;;;;;7.50;7.25;;;;;22.28;54.06;100741.28;5073457;28;45632;-77
2022/09/01 06:33:08;;;;;;;;;9.75;7.50;;;;;22.06;54.48;100731.94;5072672;28;46038;-76
2022/09/01 06:35:35;;;;;;;;;12.25;10.00;;;;;22.11;54.57;100737.03;5073828;28;45473;-74
2022/09/01 06:38:01;;;;;;;;;15.50;9.75;;;;;22.07;54.61;100749.81;5073663;27;45377;-76
2022/09/01 06:40:27;;;;;;;;;7.00;7.00;;;;;22.07;54.59;100738.19;5073754;27;45334;-74
2022/09/01 06:42:53;;;;;;;;;11.00;10.00;;;;;21.90;54.97;100741.97;5073479;27;46228;-76
2022/09/01 06:45:22;;;;;;;;;9.00;7.00;;;;;21.75;55.23;100743.84;5071450;28;45509;-75
2022/09/01 06:47:49;;;;;;;;;10.75;9.50;;;;;21.80;55.75;100742.59;5073955;27;45433;-76
2022/09/01 06:50:18;;;;;;;;;8.00;8.00;;;;;21.87;55.37;100744.88;5073604;27;45418;-77
2022/09/01 06:52:45;;;;;;;;;9.50;9.50;;;;;21.99;55.10;100739.53;5072898;28;45444;-76
2022/09/01 06:55:12;;;;;;;;;9.50;9.50;;;;;22.05;54.71;100740.13;5071774;27;45513;-76
2022/09/01 06:57:40;;;;;;;;;7.00;7.00;;;;;22.32;54.45;100748.22;5072339;28;45639;-77
2022/09/01 07:00:19;;;;;;;;;10.50;7.50;;;;;22.53;53.84;100744.09;5071921;28;45536;-76
2022/09/01 07:02:44;;;;;;;;;8.00;6.50;;;;;22.63;53.17;100746.16;5075053;28;46340;-76
2022/09/01 07:05:11;;;;;;;;;11.00;10.00;;;;;22.99;52.50;100752.69;5058713;28;45998;-75
2022/09/01 07:07:36;;;;;;;;;13.00;8.00;;;;;23.10;52.67;100744.72;5077294;27;45329;-75
2022/09/01 07:10:04;;;;;;;;;14.00;11.00;;;;;23.04;52.15;100745.97;5077477;27;45781;-78
2022/09/01 07:12:30;;;;;;;;;7.50;7.50;;;;;23.03;51.98;100746.09;5076118;27;45986;-75
2022/09/01 07:14:58;;;;;;;;;11.75;9.25;;;;;23.05;52.62;100736.94;5075586;28;45453;-76
2022/09/01 07:17:24;;;;;;;;;15.50;10.50;;;;;23.32;52.06;100737.81;5077136;28;45334;-76
2022/09/01 07:19:49;;;;;;;;;15.50;10.00;;;;;23.88;50.41;100735.59;5076992;28;45471;-77
2022/09/01 07:22:15;;;;;;;;;13.50;10.00;;;;;24.43;50.06;100748.63;5077305;28;46331;-76
2022/09/01 07:24:40;;;;;;;;;9.25;9.25;;;;;24.94;48.79;100728.56;5075993;28;45394;-76
2022/09/01 07:27:08;;;;;;;;;9.50;9.25;;;;;25.22;48.39;100729.97;5076430;28;45635;-75
2022/09/01 07:29:34;;;;;;;;;6.00;5.00;;;;;25.29;47.52;100728.50;5075866;28;45374;-76
2022/09/01 07:32:00;;;;;;;;;10.50;9.00;;;;;25.32;47.06;100728.25;5076807;27;46128;-82
2022/09/01 07:34:25;;;;;;;;;4.50;2.25;;;;;25.32;46.75;100743.63;5068672;27;45631;-77
2022/09/01 07:36:54;;;;;;;;;10.50;7.50;;;;;25.54;46.43;100745.50;5075431;28;45414;-76
2022/09/01 07:39:19;;;;;;;;;8.50;7.50;;;;;25.92;45.97;100749.63;5075566;28;45508;-76
2022/09/01 07:41:45;;;;;;;;;13.25;12.00;;;;;26.42;45.22;100747.28;5076186;28;45378;-77
2022/09/01 07:44:12;;;;;;;;;7.00;7.00;;;;;27.10;44.22;100746.97;5075829;27;45381;-77
2022/09/01 07:46:38;;;;;;;;;5.75;5.75;;;;;27.48;42.18;100742.75;5075570;28;45441;-77
2022/09/01 07:49:05;;;;;;;;;7.00;7.00;;;;;27.70;41.74;100723.69;5076580;28;45413;-77
2022/09/01 07:51:32;;;;;;;;;8.00;6.25;;;;;28.05;41.50;100739.50;5076011;28;46115;-76
2022/09/01 07:53:59;;;;;;;;;7.75;7.75;;;;;28.73;40.38;100735.09;5075691;28;45452;-77
2022/09/01 07:56:25;;;;;;;;;9.25;7.75;;;;;29.07;40.52;100736.31;5074972;28;45359;-77
2022/09/01 07:58:51;;;;;;;;;8.75;7.50;;;;;29.90;39.17;100741.06;5075705;27;45365;-76
2022/09/01 08:01:20;;;;;;;;;9.50;7.50;;;;;30.43;38.45;100744.03;5076601;27;47423;-74
2022/09/01 08:03:48;;;;;;;;;4.75;4.75;;;;;31.14;35.89;100736.72;5071844;28;45531;-74
2022/09/01 08:06:19;;;;;;;;;8.00;7.25;;;;;31.56;35.75;100735.97;5072871;28;45501;-75
2022/09/01 08:08:47;;;;;;;;;11.75;9.25;;;;;32.03;34.18;100731.84;5071876;28;45460;-75
2022/09/01 08:11:24;;;;;;;;;8.00;7.00;;;;;32.54;33.25;100734.47;5068373;27;46224;-74
2022/09/01 08:13:50;;;;;;;;;7.00;7.00;;;;;32.64;33.28;100729.72;5066307;28;45451;-74
2022/09/01 08:16:16;;;;;;;;;9.75;9.25;;;;;32.70;32.04;100734.53;5070985;28;45574;-75
2022/09/01 08:18:42;;;;;;;;;5.75;5.75;;;;;32.53;32.66;100741.00;5067483;28;45631;-75
2022/09/01 08:21:09;;;;;;;;;9.25;7.00;;;;;32.49;32.37;100742.34;5072095;28;45920;-76
2022/09/01 08:23:36;;;;;;;;;10.25;10.25;;;;;32.19;32.89;100736.50;5074655;28;45484;-76
2022/09/01 08:26:05;;;;;;;;;9.00;8.50;;;;;32.02;34.39;100741.94;5072484;28;45489;-76
2022/09/01 08:28:32;;;;;;;;;8.50;8.50;;;;;31.36;33.88;100752.56;5074608;28;45647;-76
2022/09/01 08:30:58;;;;;;;;;9.50;9.00;;;;;31.01;34.69;100748.09;5073898;28;45568;-77
2022/09/01 08:33:25;;;;;;;;;9.00;7.50;;;;;30.71;34.75;100750.22;5074611;28;45552;-75
2022/09/01 08:35:51;;;;;;;;;12.25;12.00;;;;;30.25;35.39;100750.28;5072526;28;45496;-77
2022/09/01 08:38:16;;;;;;;;;10.25;9.25;;;;;30.33;35.71;100749.50;5068778;27;45646;-78
2022/09/01 08:40:51;;;;;;;;;12.50;8.25;;;;;30.86;34.59;100747.78;5064515;28;45575;-76
2022/09/01 08:43:31;;;;;;;;;5.00;5.00;;;;;30.93;35.02;100742.53;5071153;28;45548;-76
2022/09/01 08:46:08;;;;;;;;;8.50;8.50;;;;;31.63;34.23;100741.63;5072777;28;45506;-76
2022/09/01 08:48:41;;;;;;;;;7.25;7.25;;;;;32.36;33.35;100743.72;5070251;28;45578;-75
2022/09/01 08:51:35;;;;;;;;;7.50;7.00;;;;;33.19;32.38;100741.84;5064843;28;45467;-76
2022/09/01 08:54:15;;;;;;;;;8.25;8.25;;;;;33.77;31.03;100741.63;5063136;27;45416;-75
2022/09/01 08:56:40;;;;;;;;;7.00;7.00;;;;;34.20;30.87;100741.25;5062030;27;45722;-76
2022/09/01 08:59:08;;;;;;;;;6.25;6.25;;;;;34.57;29.95;100747.84;5062742;27;45577;-75
2022/09/01 09:01:49;;;;;;;;;10.50;9.25;;;;;34.89;29.43;100749.47;5067985;27;45922;-75
2022/09/01 09:04:30;;;;;;;;;5.25;4.00;;;;;35.13;29.27;100748.34;5072128;28;45536;-76
2022/09/01 09:07:05;;;;;;;;;7.00;6.00;;;;;35.10;28.95;100751.47;5073000;28;45703;-76
2022/09/01 09:09:42;;;;;;;;;9.75;9.75;;;;;34.94;28.76;100752.53;5073154;27;45464;-76
2022/09/01 09:12:09;;;;;;;;;8.25;5.50;;;;;35.05;29.13;100742.97;5073126;28;46396;-76
2022/09/01 09:14:59;;;;;;;;;7.00;7.00;;;;;35.55;27.96;100743.28;5073961;28;45580;-76
2022/09/01 09:17:33;;;;;;;;;12.25;10.75;;;;;35.43;27.45;100751.16;5072135;28;45481;-74
2022/09/01 09:19:59;;;;;;;;;8.75;7.50;;;;;35.31;28.20;100755.44;5074588;27;45417;-76
2022/09/01 09:22:25;;;;;;;;;9.75;9.75;;;;;35.52;28.12;100750.00;5072050;28;45619;-75
2022/09/01 09:25:06;;;;;;;;;9.75;9.75;;;;;35.33;28.05;100754.19;5072000;28;45449;-75
2022/09/01 09:27:32;;;;;;;;;8.25;5.25;;;;;35.82;28.10;100750.00;5073153;28;45482;-79
2022/09/01 09:30:00;;;;;;;;;4.75;4.75;;;;;36.27;26.69;100750.75;5074471;28;45637;-77
2022/09/01 09:32:59;;;;;;;;;5.00;5.00;;;;;36.76;26.77;100745.50;5071241;28;47306;-77
2022/09/01 09:35:30;;;;;;;;;8.00;8.00;;;;;37.14;26.59;100739.63;5070673;28;45499;-77
2022/09/01 09:38:18;;;;;;;;;11.00;9.25;;;;;36.77;26.01;100741.72;5074205;28;45400;-76
2022/09/01 09:41:17;;;;;;;;;7.50;6.25;;;;;36.10;26.70;100746.50;5065622;28;45512;-79
2022/09/01 09:43:57;;;;;;;;;11.00;11.00;;;;;35.57;27.22;100736.53;5067663;28;45891;-77
2022/09/01 09:46:31;;;;;;;;;8.75;8.75;;;;;35.36;29.01;100741.97;5071692;28;45587;-76
2022/09/01 09:49:14;;;;;;;;;10.50;8.50;;;;;35.32;28.76;100740.63;5073263;28;45556;-75
2022/09/01 09:51:43;;;;;;;;;10.75;9.50;;;;;35.01;28.35;100736.13;5072800;28;45597;-78
2022/09/01 09:54:13;;;;;;;;;9.25;8.75;;;;;34.82;28.95;100741.13;5073031;28;45531;-75
2022/09/01 09:56:45;;;;;;;;;11.00;10.25;;;;;34.68;28.68;100739.16;5072493;27;45401;-77
2022/09/01 09:59:28;;;;;;;;;9.75;8.25;;;;;34.51;30.58;100741.19;5073636;28;45427;-76
2022/09/01 10:02:22;;;;;;;;;7.75;5.00;;;;;34.24;29.92;100739.81;5058504;28;45443;-75
2022/09/01 10:04:48;;;;;;;;;10.25;9.25;;;;;34.02;30.66;100731.41;5072160;28;46251;-76
2022/09/01 10:07:25;;;;;;;;;5.75;5.75;;;;;34.12;29.86;100740.25;5072893;27;45536;-77
2022/09/01 10:09:54;;;;;;;;;9.75;9.75;;;;;33.98;30.19;100738.28;5065201;28;45523;-77
2022/09/01 10:12:21;;;;;;;;;11.25;8.75;;;;;33.80;29.94;100731.19;5072810;28;45510;-77
2022/09/01 10:15:06;;;;;;;;;7.25;7.25;;;;;33.77;30.42;100733.41;5071987;28;45458;-76
2022/09/01 10:17:37;;;;;;;;;8.75;8.75;;;;;33.53;32.09;100737.13;5073290;28;45396;-78
2022/09/01 10:20:17;;;;;;;;;5.75;5.75;;;;;33.35;30.84;100734.63;5073987;28;45362;-77
2022/09/01 10:22:43;;;;;;;;;7.75;7.00;;;;;33.16;31.83;100738.56;5071414;28;45775;-76
2022/09/01 10:25:15;;;;;;;;;10.00;9.00;;;;;32.91;30.91;100741.34;5072358;28;46095;-76
2022/09/01 10:27:46;;;;;;;;;8.50;7.00;;;;;32.70;31.36;100739.16;5072512;28;45459;-76
2022/09/01 10:30:17;;;;;;;;;7.75;4.75;;;;;32.17;32.18;100738.56;5073359;28;45426;-75
2022/09/01 10:32:46;;;;;;;;;10.00;10.00;;;;;32.17;32.62;100733.09;5072145;28;45445;-76
2022/09/01 10:35:18;;;;;;;;;8.25;8.25;;;;;32.24;32.42;100718.59;5067563;28;45555;-76
2022/09/01 10:37:46;;;;;;;;;10.50;8.75;;;;;32.57;32.19;100734.19;5074056;28;45550;-77
2022/09/01 10:40:38;;;;;;;;;4.00;4.00;;;;;32.87;32.47;100718.09;5075615;28;45470;-75
2022/09/01 10:43:33;;;;;;;;;14.00;11.50;;;;;32.90;31.31;100723.22;5076346;28;45674;-76
2022/09/01 10:45:58;;;;;;;;;7.50;7.50;;;;;32.05;32.48;100719.75;5073966;28;45378;-76
2022/09/01 10:48:33;;;;;;;;;8.00;8.00;;;;;31.62;32.84;100721.66;5076888;27;45402;-76
2022/09/01 10:51:11;;;;;;;;;9.50;9.50;;;;;31.13;33.58;100719.50;5073087;28;46074;-77
2022/09/01 10:53:39;;;;;;;;;5.00;5.00;;;;;30.68;33.65;100715.06;5075859;28;45838;-74
2022/09/01 10:56:12;;;;;;;;;11.50;8.25;;;;;30.57;34.38;100723.53;5075096;28;45436;-75
2022/09/01 10:59:05;;;;;;;;;6.75;6.50;;;;;30.44;34.65;100721.19;5075396;28;45436;-76
2022/09/01 11:01:39;;;;;;;;;8.25;7.50;;;;;30.29;35.26;100724.44;5071157;28;45899;-75
2022/09/01 11:04:12;;;;;;;;;6.50;6.00;;;;;30.21;34.89;100720.78;5075043;28;45485;-76
2022/09/01 11:06:40;;;;;;;;;6.00;6.00;;;;;30.25;34.97;100722.19;5075669;28;45593;-77
2022/09/01 11:09:41;;;;;;;;;7.00;7.00;;;;;30.19;35.21;100720.94;5075073;28;45480;-76
2022/09/01 11:12:16;;;;;;;;;6.00;6.00;;;;;30.12;34.51;100717.09;5011772;28;45409;-76
2022/09/01 11:14:53;;;;;;;;;7.00;6.00;;;;;30.02;35.15;100719.03;5005242;28;45712;-77
2022/09/01 11:17:27;;;;;;;;;7.75;6.75;;;;;30.02;35.20;100714.47;4994652;28;47246;-77
2022/09/01 11:19:54;;;;;;;;;4.00;4.00;;;;;29.90;35.14;100716.53;5013178;28;45920;-77
2022/09/01 11:22:25;;;;;;;;;6.25;5.25;;;;;29.97;35.29;100708.59;5013271;28;45430;-77
2022/09/01 11:25:32;;;;;;;;;6.00;6.00;;;;;29.81;35.46;100708.44;5012939;28;45437;-76
2022/09/01 11:28:19;;;;;;;;;6.00;5.00;;;;;29.90;35.16;100702.09;5011960;28;45490;-76
2022/09/01 11:30:59;;;;;;;;;1.00;1.00;;;;;30.03;34.67;100693.50;4995714;28;45554;-77
2022/09/01 11:33:47;;;;;;;;;5.75;5.75;;;;;30.19;33.57;100695.56;5010611;28;45764;-77
2022/09/01 11:36:29;;;;;;;;;2.00;2.00;;;;;30.43;33.33;100693.06;5009790;28;45499;-76
2022/09/01 11:39:06;;;;;;;;;3.50;3.25;;;;;30.55;32.87;100703.72;5012920;28;45492;-77
2022/09/01 11:41:45;;;;;;;;;4.00;2.50;;;;;30.44;31.93;100691.19;5012855;28;45723;-77